Time;durP1;ratioP1;P1;durP2;ratioP2;P2;SDS_P1;SDS_P2;PMS_P1;PMS_P2;Temp;Humidity;BMP_temperature;BMP_pressure;BME280_temperature;BME280_humidity;BME280_pressure;Samples;Min_cycle;Max_cycle;Signal;HPM_P1;HPM_P2
2023/10/12 00:01:59;;;;;;;3.73;2.67;;;21.60;99.90;;;;;;5105330;28;20176;-89
2023/10/12 00:04:46;;;;;;;3.17;2.60;;;21.70;99.90;;;;;;5122912;28;20331;-89
2023/10/12 00:07:16;;;;;;;3.57;2.40;;;21.60;99.90;;;;;;5105166;28;20170;-89
2023/10/12 00:09:48;;;;;;;4.67;2.50;;;21.70;99.90;;;;;;5123726;28;20180;-89
2023/10/12 00:12:23;;;;;;;3.50;2.50;;;21.70;99.90;;;;;;5106752;28;20184;-90
2023/10/12 00:14:49;;;;;;;3.43;2.60;;;21.70;99.90;;;;;;5105088;28;20197;-90
2023/10/12 00:17:18;;;;;;;3.63;2.30;;;21.70;99.90;;;;;;5120472;28;20251;-89
2023/10/12 00:19:44;;;;;;;3.53;2.20;;;21.60;99.90;;;;;;5122184;28;20181;-90
2023/10/12 00:22:15;;;;;;;2.50;2.17;;;21.70;99.90;;;;;;5123310;28;20155;-90
2023/10/12 00:24:41;;;;;;;4.13;2.30;;;21.70;99.90;;;;;;5123040;28;20189;-90
2023/10/12 00:27:09;;;;;;;2.80;2.40;;;21.70;99.90;;;;;;5106177;28;20167;-89
2023/10/12 00:29:39;;;;;;;4.00;2.47;;;21.60;99.90;;;;;;5122337;28;20178;-89
2023/10/12 00:32:09;;;;;;;3.20;2.40;;;21.70;99.90;;;;;;5105631;28;20202;-90
2023/10/12 00:34:45;;;;;;;4.33;2.50;;;21.60;99.90;;;;;;5105904;28;20220;-89
2023/10/12 00:37:12;;;;;;;3.43;2.60;;;21.70;99.90;;;;;;5105721;28;20456;-89
2023/10/12 00:39:47;;;;;;;3.63;2.60;;;21.60;99.90;;;;;;5104774;28;20460;-89
2023/10/12 00:42:17;;;;;;;3.90;2.40;;;21.60;99.90;;;;;;5122234;28;20266;-89
2023/10/12 00:44:47;;;;;;;3.40;2.47;;;21.60;99.90;;;;;;5104545;28;20177;-89
2023/10/12 00:47:19;;;;;;;4.97;2.70;;;21.60;99.90;;;;;;5122704;28;20158;-90
2023/10/12 00:49:51;;;;;;;3.80;2.73;;;21.60;99.90;;;;;;5104821;28;20170;-89
2023/10/12 00:52:26;;;;;;;3.20;2.40;;;21.60;99.90;;;;;;5123158;28;20499;-89
2023/10/12 00:55:04;;;;;;;2.90;2.30;;;21.60;99.90;;;;;;5122947;28;20265;-89
2023/10/12 00:57:31;;;;;;;4.00;2.23;;;21.60;99.90;;;;;;5105187;28;20500;-90
2023/10/12 01:00:01;;;;;;;2.87;2.37;;;21.60;99.90;;;;;;5121826;28;20166;-89
2023/10/12 01:02:32;;;;;;;4.03;2.40;;;21.60;99.90;;;;;;5106019;28;20259;-89
2023/10/12 01:05:01;;;;;;;3.70;2.60;;;21.60;99.90;;;;;;5105054;28;20162;-90
2023/10/12 01:07:34;;;;;;;4.10;2.40;;;21.60;99.90;;;;;;5102523;28;20176;-90
2023/10/12 01:10:06;;;;;;;3.80;2.30;;;21.60;99.90;;;;;;5103379;28;20184;-90
2023/10/12 01:12:34;;;;;;;3.63;2.40;;;21.60;99.90;;;;;;5122037;28;20173;-90
2023/10/12 01:15:08;;;;;;;2.90;2.30;;;21.60;99.90;;;;;;5104460;28;20238;-89
2023/10/12 01:17:35;;;;;;;3.63;2.47;;;21.60;99.90;;;;;;5105159;28;20202;-89
2023/10/12 01:20:16;;;;;;;4.90;2.80;;;21.60;99.90;;;;;;5122176;28;20156;-89
2023/10/12 01:22:42;;;;;;;3.00;2.30;;;21.60;99.90;;;;;;5104690;28;20170;-90
2023/10/12 01:25:12;;;;;;;4.37;2.60;;;21.60;99.90;;;;;;5111380;28;20166;-89
2023/10/12 01:27:44;;;;;;;3.40;2.60;;;21.60;99.90;;;;;;5103750;28;20213;-89
2023/10/12 01:30:44;;;;;;;2.87;2.30;;;21.60;99.90;;;;;;5121513;28;20180;-90
2023/10/12 01:33:04;;;;;;;3.13;2.40;;;21.60;99.90;;;;;;5114844;28;20197;-90
2023/10/12 01:35:33;;;;;;;4.13;2.40;;;21.60;99.90;;;;;;5103587;28;20188;-90
2023/10/12 01:38:05;;;;;;;3.37;2.50;;;21.60;99.90;;;;;;5103398;28;20212;-90
2023/10/12 01:43:29;;;;;;;3.47;2.40;;;21.60;99.90;;;;;;5065368;28;20217;-89
2023/10/12 01:46:00;;;;;;;4.87;2.70;;;21.50;99.90;;;;;;5120641;28;20198;-89
2023/10/12 01:48:33;;;;;;;3.27;2.50;;;21.60;99.90;;;;;;5104105;28;20224;-89
2023/10/12 01:51:24;;;;;;;2.90;2.40;;;21.50;99.90;;;;;;5103082;28;20298;-90
2023/10/12 01:53:49;;;;;;;4.17;2.60;;;21.50;99.90;;;;;;5121232;28;20233;-90
2023/10/12 01:56:16;;;;;;;3.90;2.60;;;21.60;99.90;;;;;;5121669;28;20190;-90
2023/10/12 01:58:43;;;;;;;2.83;2.30;;;21.50;99.90;;;;;;5121391;28;20582;-89
2023/10/12 02:01:18;;;;;;;2.90;2.50;;;21.50;99.90;;;;;;5113343;28;20231;-89
2023/10/12 02:03:55;;;;;;;3.70;2.70;;;21.50;99.90;;;;;;5121381;28;20205;-89
2023/10/12 02:06:28;;;;;;;3.80;2.60;;;21.50;99.90;;;;;;5120589;28;20277;-89
2023/10/12 02:08:54;;;;;;;3.50;2.37;;;21.50;99.90;;;;;;5121473;28;20205;-89
2023/10/12 02:13:54;;;;;;;4.23;2.70;;;21.50;99.90;;;;;;5121113;28;20185;-90
2023/10/12 02:18:56;;;;;;;3.20;2.40;;;21.50;99.90;;;;;;5124655;28;20189;-89
2023/10/12 02:21:25;;;;;;;3.00;2.43;;;21.50;99.90;;;;;;5108072;28;20185;-89
2023/10/12 02:24:11;;;;;;;3.40;2.60;;;21.50;99.90;;;;;;5107947;28;20567;-88
2023/10/12 02:29:11;;;;;;;3.07;2.50;;;21.50;99.90;;;;;;5126022;28;20472;-88
2023/10/12 02:31:39;;;;;;;3.93;2.63;;;21.50;99.90;;;;;;5124756;28;20185;-88
2023/10/12 02:34:06;;;;;;;3.00;2.33;;;21.50;99.90;;;;;;5107812;28;20191;-89
2023/10/12 02:36:32;;;;;;;3.70;2.43;;;21.50;99.90;;;;;;5107075;28;20221;-89
2023/10/12 02:38:59;;;;;;;3.30;2.50;;;21.50;99.90;;;;;;5108444;28;20220;-89
2023/10/12 02:41:26;;;;;;;3.80;2.63;;;21.50;99.90;;;;;;5122911;28;20174;-88
2023/10/12 02:44:11;;;;;;;5.73;2.57;;;21.50;99.90;;;;;;5103533;28;20170;-89
2023/10/12 02:47:11;;;;;;;2.83;2.50;;;21.50;99.90;;;;;;5086174;28;20179;-89
2023/10/12 02:49:25;;;;;;;2.93;2.53;;;21.50;99.90;;;;;;5103673;28;20182;-89
2023/10/12 02:52:05;;;;;;;2.53;2.23;;;21.50;99.90;;;;;;5086549;28;20174;-89
2023/10/12 02:54:38;;;;;;;3.80;2.60;;;21.50;99.90;;;;;;5086859;28;20170;-89
2023/10/12 02:57:04;;;;;;;3.63;2.43;;;21.50;99.90;;;;;;5104297;28;21509;-89
2023/10/12 02:59:39;;;;;;;3.27;2.63;;;21.50;99.90;;;;;;5087242;28;20167;-88
2023/10/12 03:02:22;;;;;;;4.10;2.70;;;21.50;99.90;;;;;;5122873;28;20270;-88
2023/10/12 03:04:48;;;;;;;2.87;2.43;;;21.40;99.90;;;;;;5103783;28;20173;-88
2023/10/12 03:07:22;;;;;;;2.57;2.37;;;21.50;99.90;;;;;;5087067;28;20175;-88
2023/10/12 03:09:56;;;;;;;3.10;2.60;;;21.50;99.90;;;;;;5087414;28;20167;-88
2023/10/12 03:12:23;;;;;;;2.57;2.37;;;21.50;99.90;;;;;;5104682;28;20664;-89
2023/10/12 03:14:53;;;;;;;3.60;2.40;;;21.40;99.90;;;;;;5087226;28;20182;-89
2023/10/12 03:17:19;;;;;;;2.57;2.27;;;21.40;99.90;;;;;;5086088;28;20210;-89
2023/10/12 03:19:55;;;;;;;3.93;2.73;;;21.40;99.90;;;;;;5105594;28;20166;-89
2023/10/12 03:22:34;;;;;;;3.10;2.53;;;21.40;99.90;;;;;;5106574;28;20454;-89
2023/10/12 03:25:19;;;;;;;3.23;2.50;;;21.40;99.90;;;;;;5106213;28;20169;-89
2023/10/12 03:27:50;;;;;;;2.97;2.37;;;21.40;99.90;;;;;;5106891;28;20643;-89
2023/10/12 03:30:17;;;;;;;3.77;2.80;;;21.40;99.90;;;;;;5090046;28;20170;-90
2023/10/12 03:32:45;;;;;;;3.33;2.50;;;21.40;99.90;;;;;;5124181;28;20221;-89
2023/10/12 03:35:22;;;;;;;4.00;2.40;;;21.40;99.90;;;;;;5105827;28;20180;-88
2023/10/12 03:37:52;;;;;;;3.00;2.37;;;21.40;99.90;;;;;;5124075;28;20213;-88
2023/10/12 03:40:50;;;;;;;3.20;2.60;;;21.40;99.90;;;;;;5123904;28;20196;-88
2023/10/12 03:43:25;;;;;;;3.70;2.60;;;21.40;99.90;;;;;;5123083;28;20579;-88
2023/10/12 03:46:07;;;;;;;3.27;2.60;;;21.40;99.90;;;;;;5121265;28;20181;-88
2023/10/12 03:49:08;;;;;;;2.70;2.23;;;21.40;99.90;;;;;;5106015;28;20593;-87
2023/10/12 03:51:43;;;;;;;2.77;2.33;;;21.40;99.90;;;;;;5102300;28;20195;-88
2023/10/12 03:57:07;;;;;;;3.03;2.37;;;21.40;99.90;;;;;;5103674;28;20205;-88
2023/10/12 04:02:17;;;;;;;2.47;2.27;;;21.40;99.90;;;;;;5123741;28;20164;-88
2023/10/12 04:05:02;;;;;;;2.83;2.40;;;21.40;99.90;;;;;;5121713;28;20162;-88
2023/10/12 04:07:39;;;;;;;3.03;2.60;;;21.30;99.90;;;;;;5105905;28;20478;-89
2023/10/12 04:10:41;;;;;;;2.50;2.30;;;21.30;99.90;;;;;;5106018;28;20266;-89
2023/10/12 04:21:23;;;;;;;3.10;2.43;;;21.30;99.90;;;;;;5121968;28;20166;-89
2023/10/12 04:27:08;;;;;;;3.80;2.27;;;21.30;99.90;;;;;;5122178;28;20597;-88
2023/10/12 04:29:31;;;;;;;3.23;2.50;;;21.30;99.90;;;;;;5121953;28;20470;-89
2023/10/12 04:32:15;;;;;;;2.40;2.20;;;21.30;99.90;;;;;;5120009;28;20177;-89
2023/10/12 04:34:49;;;;;;;2.50;2.30;;;21.30;99.90;;;;;;5121805;28;20683;-89
2023/10/12 04:37:22;;;;;;;3.03;2.50;;;21.30;99.90;;;;;;5104209;28;20247;-89
2023/10/12 04:39:49;;;;;;;2.80;2.30;;;21.30;99.90;;;;;;5104165;28;20682;-89
2023/10/12 04:42:23;;;;;;;2.60;2.40;;;21.30;99.90;;;;;;5120982;28;20176;-89
2023/10/12 04:46:05;;;;;;;3.33;2.63;;;21.30;99.90;;;;;;5103395;28;20165;-89
2023/10/12 04:47:45;;;;;;;3.20;2.30;;;21.30;99.90;;;;;;5113573;28;20189;-88
2023/10/12 04:50:26;;;;;;;2.40;2.20;;;21.30;99.90;;;;;;5104178;28;20172;-88
2023/10/12 04:53:14;;;;;;;2.50;2.10;;;21.30;99.90;;;;;;5104094;28;20177;-89
2023/10/12 04:55:47;;;;;;;3.73;2.40;;;21.30;99.90;;;;;;5103966;28;20459;-89
2023/10/12 05:00:59;;;;;;;3.50;2.57;;;21.20;99.90;;;;;;5120411;28;20159;-88
2023/10/12 05:03:36;;;;;;;3.23;2.77;;;21.20;99.90;;;;;;5102651;28;20217;-89
2023/10/12 05:06:09;;;;;;;2.97;2.20;;;21.20;99.90;;;;;;5119230;28;20205;-89
2023/10/12 05:08:40;;;;;;;2.97;2.30;;;21.20;99.90;;;;;;5103771;28;20205;-89
2023/10/12 05:11:09;;;;;;;3.10;2.20;;;21.20;99.90;;;;;;5103877;28;20172;-89
2023/10/12 05:13:34;;;;;;;2.77;2.33;;;21.20;99.90;;;;;;5118225;28;20179;-89
2023/10/12 05:16:05;;;;;;;2.47;2.27;;;21.20;99.90;;;;;;5121846;28;20245;-89
2023/10/12 05:18:31;;;;;;;2.57;2.37;;;21.20;99.90;;;;;;5102683;28;20174;-89
2023/10/12 05:20:59;;;;;;;2.80;2.37;;;21.20;99.90;;;;;;5100357;28;20223;-89
2023/10/12 05:23:24;;;;;;;2.37;2.17;;;21.20;99.90;;;;;;5102543;28;20174;-88
2023/10/12 05:28:27;;;;;;;2.60;2.23;;;21.20;99.90;;;;;;5120023;28;20259;-88
2023/10/12 05:31:09;;;;;;;3.57;2.50;;;21.20;99.90;;;;;;5101237;28;20283;-88
2023/10/12 05:36:11;;;;;;;2.80;2.60;;;21.20;99.90;;;;;;5117027;28;20246;-89
2023/10/12 05:38:51;;;;;;;2.90;2.37;;;21.20;99.90;;;;;;5096821;28;20172;-88
2023/10/12 05:41:36;;;;;;;3.30;2.43;;;21.20;99.90;;;;;;5096043;28;20193;-88
2023/10/12 05:44:08;;;;;;;2.67;2.40;;;21.20;99.90;;;;;;5098194;28;20168;-88
2023/10/12 05:46:35;;;;;;;2.87;2.30;;;21.20;99.90;;;;;;5113919;28;20178;-88
2023/10/12 05:49:02;;;;;;;3.57;2.83;;;21.20;99.90;;;;;;5113898;28;20284;-88
2023/10/12 05:51:28;;;;;;;2.80;2.50;;;21.20;99.90;;;;;;5112877;28;20189;-88
2023/10/12 05:54:02;;;;;;;2.80;2.30;;;21.20;99.90;;;;;;5112810;28;20313;-88
2023/10/12 05:56:34;;;;;;;2.80;2.57;;;21.20;99.90;;;;;;5095727;28;20206;-89
2023/10/12 05:59:00;;;;;;;2.93;2.30;;;21.20;99.90;;;;;;5095923;28;20166;-88
2023/10/12 06:01:32;;;;;;;2.87;2.37;;;21.20;99.90;;;;;;5115227;28;20509;-88
2023/10/12 06:04:08;;;;;;;3.23;2.20;;;21.20;99.90;;;;;;5110377;28;20172;-88
2023/10/12 06:06:41;;;;;;;2.50;2.30;;;21.20;99.90;;;;;;5097670;28;20567;-87
2023/10/12 06:09:36;;;;;;;3.30;2.30;;;21.20;99.90;;;;;;5115581;28;20692;-88
2023/10/12 06:12:06;;;;;;;2.67;2.20;;;21.20;99.90;;;;;;5113174;28;20178;-88
2023/10/12 06:14:51;;;;;;;2.87;2.40;;;21.20;99.90;;;;;;5096716;28;20173;-88
2023/10/12 06:17:29;;;;;;;2.77;2.40;;;21.20;99.90;;;;;;5096909;28;20216;-89
2023/10/12 06:20:47;;;;;;;2.53;2.33;;;21.10;99.90;;;;;;5111596;28;20185;-88
2023/10/12 06:22:46;;;;;;;2.67;2.10;;;21.10;99.90;;;;;;5073626;28;20334;-88
2023/10/12 06:25:17;;;;;;;2.93;2.40;;;21.10;99.90;;;;;;5079519;28;20168;-88
2023/10/12 06:27:43;;;;;;;2.43;2.23;;;21.10;99.90;;;;;;5091159;28;20166;-88
2023/10/12 06:30:18;;;;;;;2.80;2.50;;;21.10;99.90;;;;;;5103675;28;20450;-88
2023/10/12 06:32:47;;;;;;;2.80;2.10;;;21.10;99.90;;;;;;5085959;28;20281;-88
2023/10/12 06:35:23;;;;;;;3.13;2.40;;;21.10;99.90;;;;;;5086594;28;20470;-88
2023/10/12 06:37:49;;;;;;;2.60;2.13;;;21.10;99.90;;;;;;5112026;28;20208;-88
2023/10/12 06:49:01;;;;;;;2.70;2.20;;;21.10;99.90;;;;;;5104204;28;20480;-88
2023/10/12 06:51:11;;;;;;;3.33;2.43;;;21.10;99.90;;;;;;5090754;28;20530;-87
2023/10/12 06:53:40;;;;;;;3.57;2.43;;;21.10;99.90;;;;;;5100644;28;20342;-88
2023/10/12 06:58:46;;;;;;;2.93;2.33;;;21.10;99.90;;;;;;5104312;28;20567;-88
2023/10/12 07:01:19;;;;;;;2.87;2.37;;;21.10;99.90;;;;;;5083533;28;20439;-88
2023/10/12 07:03:48;;;;;;;2.83;2.33;;;21.10;99.90;;;;;;5083593;28;20174;-88
2023/10/12 07:06:15;;;;;;;2.70;2.47;;;21.10;99.90;;;;;;5088419;28;20169;-88
2023/10/12 07:08:46;;;;;;;3.80;2.40;;;21.10;99.90;;;;;;5088524;28;20178;-88
2023/10/12 07:11:14;;;;;;;3.30;2.30;;;21.00;99.90;;;;;;5089909;28;20632;-88
2023/10/12 07:13:41;;;;;;;4.63;2.70;;;21.10;99.90;;;;;;5090205;28;20235;-88
2023/10/12 07:16:08;;;;;;;3.77;2.70;;;21.10;99.90;;;;;;5090894;28;20177;-88
2023/10/12 07:18:43;;;;;;;2.50;2.30;;;21.10;99.90;;;;;;5088233;28;20246;-88
2023/10/12 07:21:20;;;;;;;4.13;2.67;;;21.10;99.90;;;;;;5090886;28;20161;-88
2023/10/12 07:23:52;;;;;;;3.83;2.80;;;21.10;99.90;;;;;;5091173;28;20443;-88
2023/10/12 07:26:19;;;;;;;3.40;2.70;;;21.10;99.90;;;;;;5089573;28;20226;-88
2023/10/12 07:28:49;;;;;;;3.33;2.70;;;21.10;99.90;;;;;;5089138;28;20189;-88
2023/10/12 07:36:35;;;;;;;4.90;2.80;;;21.10;99.90;;;;;;5108520;28;20279;-88
2023/10/12 07:41:59;;;;;;;7.27;3.30;;;21.10;99.90;;;;;;5112687;28;20367;-88
2023/10/12 07:44:27;;;;;;;7.30;3.30;;;21.00;99.90;;;;;;5104764;28;20177;-89
2023/10/12 07:46:58;;;;;;;6.57;3.03;;;21.10;99.90;;;;;;5096993;28;20171;-88
2023/10/12 07:52:09;;;;;;;7.43;3.60;;;21.10;99.90;;;;;;5114537;28;20166;-88
2023/10/12 07:57:19;;;;;;;7.13;3.53;;;21.00;99.90;;;;;;5108310;28;20246;-88
2023/10/12 08:08:08;;;;;;;7.43;3.13;;;21.00;99.90;;;;;;5107582;28;20397;-88
2023/10/12 08:13:25;;;;;;;4.37;3.10;;;21.10;99.90;;;;;;5106857;28;20162;-88
2023/10/12 08:21:23;;;;;;;9.13;3.40;;;21.00;99.90;;;;;;5109953;28;20232;-89
2023/10/12 08:24:22;;;;;;;6.67;3.50;;;21.00;99.90;;;;;;5099538;28;20210;-89
2023/10/12 08:31:49;;;;;;;5.50;3.40;;;21.00;99.90;;;;;;5106441;28;20683;-89
2023/10/12 08:37:18;;;;;;;9.10;3.80;;;21.00;99.90;;;;;;5078563;28;20260;-88
2023/10/12 08:40:55;;;;;;;7.87;3.40;;;21.00;99.90;;;;;;5095003;28;20380;-88
2023/10/12 08:42:55;;;;;;;10.00;3.67;;;21.00;99.90;;;;;;5068035;28;20202;-89
2023/10/12 08:45:23;;;;;;;7.97;3.20;;;21.00;99.90;;;;;;5087021;28;20171;-88
2023/10/12 08:47:53;;;;;;;6.43;3.00;;;21.00;99.90;;;;;;5089629;28;20328;-88
2023/10/12 08:52:51;;;;;;;6.33;3.57;;;21.00;99.90;;;;;;5103059;28;20569;-88
2023/10/12 08:55:19;;;;;;;6.33;3.50;;;21.00;99.90;;;;;;5089218;28;20223;-89
2023/10/12 08:58:12;;;;;;;6.03;3.30;;;21.00;99.90;;;;;;5093446;28;20217;-89
2023/10/12 09:00:40;;;;;;;9.03;3.67;;;21.00;99.90;;;;;;5089548;28;20387;-88
2023/10/12 09:03:38;;;;;;;10.27;3.90;;;21.10;99.90;;;;;;5087857;28;20264;-88
2023/10/12 09:05:58;;;;;;;7.80;4.07;;;21.00;99.90;;;;;;5104571;28;20201;-88
2023/10/12 09:13:36;;;;;;;6.43;3.60;;;21.00;99.90;;;;;;5106131;28;20166;-88
2023/10/12 09:16:09;;;;;;;9.83;3.47;;;21.00;99.90;;;;;;5087676;28;20178;-89
2023/10/12 09:19:11;;;;;;;5.20;3.50;;;21.00;99.90;;;;;;5089124;28;20504;-88
2023/10/12 09:21:39;;;;;;;7.13;3.60;;;21.00;99.90;;;;;;5109260;28;20181;-89
2023/10/12 09:24:06;;;;;;;8.60;4.00;;;21.10;99.90;;;;;;5113054;28;20208;-89
2023/10/12 09:26:49;;;;;;;9.40;4.00;;;21.00;99.90;;;;;;5089922;28;20445;-88
2023/10/12 09:29:21;;;;;;;13.50;4.00;;;21.10;99.90;;;;;;5084894;28;20177;-89
2023/10/12 09:32:28;;;;;;;11.83;3.73;;;21.10;99.90;;;;;;5099778;28;20232;-89
2023/10/12 09:35:33;;;;;;;9.87;4.00;;;21.20;99.90;;;;;;5079337;28;20351;-89
2023/10/12 09:37:43;;;;;;;13.80;4.33;;;21.10;99.90;;;;;;5089719;28;20479;-89
2023/10/12 09:40:24;;;;;;;9.07;3.70;;;21.10;99.90;;;;;;5100975;28;20174;-89
2023/10/12 09:42:56;;;;;;;7.07;3.77;;;21.10;99.90;;;;;;5080204;28;20162;-90
2023/10/12 09:45:24;;;;;;;9.00;3.60;;;21.10;99.90;;;;;;5082936;28;20428;-89
2023/10/12 09:47:57;;;;;;;7.93;4.00;;;21.10;99.90;;;;;;5087955;28;20170;-89
2023/10/12 09:50:27;;;;;;;7.10;3.50;;;21.10;99.90;;;;;;5089369;28;20212;-89
2023/10/12 09:52:57;;;;;;;6.80;3.80;;;21.10;99.90;;;;;;5084574;28;20171;-89
2023/10/12 09:55:36;;;;;;;6.67;3.70;;;21.10;99.90;;;;;;5084321;28;20581;-89
2023/10/12 09:58:22;;;;;;;6.80;3.97;;;21.10;99.90;;;;;;5085161;28;20341;-89
2023/10/12 10:00:55;;;;;;;6.47;3.83;;;21.10;99.90;;;;;;5101797;28;20158;-90
2023/10/12 10:03:25;;;;;;;7.73;3.73;;;21.10;99.90;;;;;;5082844;28;20185;-89
2023/10/12 10:06:02;;;;;;;7.27;3.70;;;21.10;99.90;;;;;;5083926;28;20242;-89
2023/10/12 10:08:29;;;;;;;7.80;3.80;;;21.10;99.90;;;;;;5082888;28;20284;-89
2023/10/12 10:10:59;;;;;;;7.47;3.60;;;21.10;99.90;;;;;;5085035;28;20241;-89
2023/10/12 10:13:47;;;;;;;6.27;3.67;;;21.10;99.90;;;;;;5085730;28;20177;-89
2023/10/12 10:16:17;;;;;;;8.57;3.73;;;21.10;99.90;;;;;;5083272;28;20166;-89
2023/10/12 10:21:38;;;;;;;7.67;3.70;;;21.10;99.90;;;;;;5101280;28;20362;-87
2023/10/12 10:24:15;;;;;;;7.83;3.80;;;21.10;99.90;;;;;;5094983;28;20511;-87
2023/10/12 10:26:43;;;;;;;6.10;3.53;;;21.10;99.90;;;;;;5083463;28;20198;-86
2023/10/12 10:29:17;;;;;;;9.07;3.90;;;21.10;99.90;;;;;;5102579;28;20177;-87
2023/10/12 10:31:50;;;;;;;7.23;3.60;;;21.10;99.90;;;;;;5080905;28;20197;-87
2023/10/12 10:34:23;;;;;;;7.57;3.60;;;21.10;99.90;;;;;;5085526;28;20190;-87
2023/10/12 10:36:53;;;;;;;5.23;3.30;;;21.10;99.90;;;;;;5085320;28;20571;-87
2023/10/12 10:41:54;;;;;;;8.23;3.97;;;21.10;99.90;;;;;;5109126;28;20232;-87
2023/10/12 10:44:27;;;;;;;8.63;3.37;;;21.10;99.90;;;;;;5091491;28;20168;-87
2023/10/12 10:46:57;;;;;;;5.30;3.50;;;21.10;99.90;;;;;;5107508;28;20555;-87
2023/10/12 10:49:30;;;;;;;6.20;3.43;;;21.10;99.90;;;;;;5089617;28;20559;-87
2023/10/12 10:54:37;;;;;;;5.60;3.50;;;21.10;99.90;;;;;;5104971;28;20552;-87
2023/10/12 10:57:17;;;;;;;7.10;3.50;;;21.10;99.90;;;;;;5086745;28;20218;-87
2023/10/12 10:59:44;;;;;;;7.23;3.83;;;21.10;99.90;;;;;;5083789;28;20163;-87
2023/10/12 11:02:13;;;;;;;7.90;3.77;;;21.10;99.90;;;;;;5106367;28;20162;-87
2023/10/12 11:04:42;;;;;;;6.83;3.80;;;21.10;99.90;;;;;;5105651;28;20235;-87
2023/10/12 11:07:13;;;;;;;5.17;3.37;;;21.10;99.90;;;;;;5103268;28;20288;-86
2023/10/12 11:10:05;;;;;;;6.73;3.60;;;21.10;99.90;;;;;;5086886;28;20226;-87
2023/10/12 11:12:38;;;;;;;8.07;3.50;;;21.10;99.90;;;;;;5087937;28;20170;-87
2023/10/12 11:17:41;;;;;;;5.77;3.93;;;21.20;99.90;;;;;;5106384;28;20210;-88
2023/10/12 11:20:27;;;;;;;6.30;3.47;;;21.10;99.90;;;;;;5087963;28;20523;-88
2023/10/12 11:22:54;;;;;;;7.20;3.83;;;21.20;99.90;;;;;;5107102;28;20158;-87
2023/10/12 11:25:20;;;;;;;4.90;3.63;;;21.10;99.90;;;;;;5087569;28;20185;-88
2023/10/12 11:27:46;;;;;;;4.57;3.30;;;21.20;99.90;;;;;;5092879;28;20174;-88
2023/10/12 11:30:18;;;;;;;7.50;3.80;;;21.20;99.90;;;;;;5106305;28;20327;-88
2023/10/12 11:32:53;;;;;;;5.47;3.37;;;21.20;99.90;;;;;;5086380;28;20261;-88
2023/10/12 11:35:40;;;;;;;5.80;3.63;;;21.20;99.90;;;;;;5088300;28;20172;-88
2023/10/12 11:38:19;;;;;;;5.87;3.37;;;21.20;99.90;;;;;;5087563;28;20201;-88
2023/10/12 11:40:55;;;;;;;6.73;3.87;;;21.20;99.90;;;;;;5087551;28;20170;-88
2023/10/12 11:43:45;;;;;;;6.20;3.20;;;21.20;99.90;;;;;;5086483;28;20437;-88
2023/10/12 11:46:10;;;;;;;7.20;3.73;;;21.20;99.90;;;;;;5085485;28;20412;-88
2023/10/12 11:48:36;;;;;;;5.03;3.53;;;21.20;99.90;;;;;;5105529;28;20170;-88
2023/10/12 11:51:12;;;;;;;6.27;3.63;;;21.20;99.90;;;;;;5088844;28;20296;-88
2023/10/12 11:53:39;;;;;;;4.77;3.60;;;21.20;99.90;;;;;;5085734;28;20262;-88
2023/10/12 11:56:17;;;;;;;6.13;3.50;;;21.20;99.90;;;;;;5086745;28;20439;-88
2023/10/12 11:58:50;;;;;;;5.93;3.27;;;21.20;99.90;;;;;;5084732;28;20582;-88
2023/10/12 12:01:18;;;;;;;6.23;3.60;;;21.20;99.90;;;;;;5085068;28;20167;-88
2023/10/12 12:03:45;;;;;;;6.03;3.50;;;21.20;99.90;;;;;;5102816;28;20232;-88
2023/10/12 12:06:18;;;;;;;4.47;3.47;;;21.20;99.90;;;;;;5087687;28;20172;-88
2023/10/12 12:08:45;;;;;;;6.47;3.40;;;21.20;99.90;;;;;;5105836;28;20265;-88
2023/10/12 12:11:13;;;;;;;5.23;3.40;;;21.20;99.90;;;;;;5087874;28;20160;-89
2023/10/12 12:13:47;;;;;;;6.33;3.73;;;21.20;99.90;;;;;;5103710;28;20242;-88
2023/10/12 12:16:20;;;;;;;5.77;3.50;;;21.20;99.90;;;;;;5087803;28;20163;-89
2023/10/12 12:18:55;;;;;;;5.90;3.80;;;21.20;99.90;;;;;;5088407;28;20166;-89
2023/10/12 12:21:33;;;;;;;6.93;3.60;;;21.20;99.90;;;;;;5084418;28;20412;-89
2023/10/12 12:26:45;;;;;;;7.07;3.50;;;21.20;99.90;;;;;;5101190;28;20677;-88
2023/10/12 12:29:15;;;;;;;6.10;3.87;;;21.20;99.90;;;;;;5092815;28;20178;-89
2023/10/12 12:31:41;;;;;;;4.47;3.30;;;21.20;99.90;;;;;;5100817;28;20406;-89
2023/10/12 12:34:07;;;;;;;6.67;4.10;;;21.20;99.90;;;;;;5082978;28;20192;-88
2023/10/12 12:36:33;;;;;;;5.10;3.73;;;21.20;99.90;;;;;;5100246;28;20617;-88
2023/10/12 12:39:10;;;;;;;5.40;3.30;;;21.20;99.90;;;;;;5082857;28;20166;-89
2023/10/12 12:41:36;;;;;;;4.37;3.17;;;21.20;99.90;;;;;;5101517;28;20196;-88
2023/10/12 12:44:02;;;;;;;3.80;3.10;;;21.20;99.90;;;;;;5098062;28;20182;-88
2023/10/12 12:46:31;;;;;;;5.83;3.33;;;21.20;99.90;;;;;;5085236;28;20181;-89
2023/10/12 12:48:57;;;;;;;5.63;3.40;;;21.20;99.90;;;;;;5096926;27;20411;-88
2023/10/12 12:51:22;;;;;;;4.23;3.17;;;21.20;99.90;;;;;;5106806;28;20585;-89
2023/10/12 12:53:51;;;;;;;5.20;3.60;;;21.20;99.90;;;;;;5100735;28;20413;-89
2023/10/12 12:56:21;;;;;;;4.30;3.40;;;21.20;99.90;;;;;;5087069;28;20574;-89
2023/10/12 12:58:49;;;;;;;4.93;3.23;;;21.20;99.90;;;;;;5086821;28;20450;-88
2023/10/12 13:01:17;;;;;;;4.33;3.60;;;21.20;99.90;;;;;;5085281;28;20404;-88
2023/10/12 13:03:44;;;;;;;5.60;3.50;;;21.20;99.90;;;;;;5086277;28;20166;-88
2023/10/12 13:06:10;;;;;;;4.50;3.27;;;21.20;99.90;;;;;;5086973;28;20178;-87
2023/10/12 13:08:36;;;;;;;4.00;3.40;;;21.20;99.90;;;;;;5096835;28;20304;-87
2023/10/12 13:11:06;;;;;;;5.10;3.40;;;21.20;99.90;;;;;;5082311;28;20402;-87
2023/10/12 13:13:39;;;;;;;5.07;3.40;;;21.20;99.90;;;;;;5100363;28;20273;-88
2023/10/12 13:16:05;;;;;;;5.03;3.13;;;21.20;99.90;;;;;;5082203;28;20235;-88
2023/10/12 13:18:34;;;;;;;4.07;3.07;;;21.20;99.90;;;;;;5083687;28;20269;-88
2023/10/12 13:21:06;;;;;;;5.03;3.23;;;21.20;99.90;;;;;;5101542;28;20174;-88
2023/10/12 13:23:35;;;;;;;5.97;3.50;;;21.20;99.90;;;;;;5084187;28;20270;-87
2023/10/12 13:26:12;;;;;;;5.37;3.67;;;21.20;99.90;;;;;;5102953;28;20173;-87
2023/10/12 13:28:40;;;;;;;4.13;3.40;;;21.20;99.90;;;;;;5103292;28;20420;-88
2023/10/12 13:31:06;;;;;;;4.23;3.37;;;21.20;99.90;;;;;;5102927;28;20173;-88
2023/10/12 13:33:34;;;;;;;4.80;3.60;;;21.20;99.90;;;;;;5069310;28;20446;-87
2023/10/12 13:36:01;;;;;;;3.70;3.37;;;21.20;99.90;;;;;;5086221;28;20173;-87
2023/10/12 13:38:31;;;;;;;4.27;3.20;;;21.20;99.90;;;;;;5103840;28;20244;-87
2023/10/12 13:40:57;;;;;;;3.93;3.40;;;21.20;99.90;;;;;;5101513;28;20227;-88
2023/10/12 13:43:33;;;;;;;4.70;3.33;;;21.20;99.90;;;;;;5103129;28;20162;-87
2023/10/12 13:46:07;;;;;;;4.90;3.57;;;21.20;99.90;;;;;;5082791;28;20171;-88
2023/10/12 13:48:37;;;;;;;4.30;3.30;;;21.20;99.90;;;;;;5084861;28;20698;-88
2023/10/12 13:51:08;;;;;;;4.70;3.47;;;21.20;99.90;;;;;;5102113;28;20162;-87
2023/10/12 13:53:36;;;;;;;6.23;3.10;;;21.20;99.90;;;;;;5083992;28;20179;-87
2023/10/12 13:56:09;;;;;;;4.10;3.17;;;21.20;99.90;;;;;;5085152;28;20461;-87
2023/10/12 13:58:35;;;;;;;5.67;3.40;;;21.20;99.90;;;;;;5084951;28;20174;-87
2023/10/12 14:01:02;;;;;;;4.77;3.13;;;21.20;99.90;;;;;;5085089;28;20318;-88
2023/10/12 14:03:29;;;;;;;3.90;3.50;;;21.20;99.90;;;;;;5083601;28;20181;-87
2023/10/12 14:05:59;;;;;;;4.07;3.27;;;21.20;99.90;;;;;;5103998;28;20168;-87
2023/10/12 14:08:28;;;;;;;5.00;3.47;;;21.20;99.90;;;;;;5103303;28;20601;-87
2023/10/12 14:10:57;;;;;;;4.67;3.50;;;21.20;99.90;;;;;;5083476;28;20188;-88
2023/10/12 14:13:23;;;;;;;6.50;3.83;;;21.20;99.90;;;;;;5087951;28;20202;-88
2023/10/12 14:15:49;;;;;;;5.17;3.47;;;21.20;99.90;;;;;;5089629;28;20275;-87
2023/10/12 14:18:18;;;;;;;4.70;3.53;;;21.20;99.90;;;;;;5095154;28;20206;-88
2023/10/12 14:20:44;;;;;;;4.10;3.33;;;21.20;99.90;;;;;;5105735;28;20181;-87
2023/10/12 14:23:11;;;;;;;4.37;3.50;;;21.20;99.90;;;;;;5107315;28;20223;-87
2023/10/12 14:25:38;;;;;;;4.53;3.30;;;21.20;99.90;;;;;;5086645;28;20439;-88
2023/10/12 14:28:06;;;;;;;4.30;3.20;;;21.20;99.90;;;;;;5090915;28;20174;-87
2023/10/12 14:30:32;;;;;;;4.00;3.40;;;21.20;99.90;;;;;;5089048;28;20358;-88
2023/10/12 14:33:03;;;;;;;4.33;3.20;;;21.20;99.90;;;;;;5090312;28;20192;-87
2023/10/12 14:35:35;;;;;;;4.13;3.57;;;21.20;99.90;;;;;;5089508;28;20311;-87
2023/10/12 14:38:02;;;;;;;4.20;3.20;;;21.20;99.90;;;;;;5088137;28;20205;-88
2023/10/12 14:40:32;;;;;;;4.20;3.30;;;21.20;99.90;;;;;;5087306;28;20169;-88
2023/10/12 14:43:11;;;;;;;4.07;3.27;;;21.20;99.90;;;;;;5087482;28;20238;-87
2023/10/12 14:45:45;;;;;;;4.57;3.67;;;21.20;99.90;;;;;;5085145;28;20178;-87
2023/10/12 14:48:12;;;;;;;5.03;3.60;;;21.20;99.90;;;;;;5087159;28;20401;-87
2023/10/12 14:50:49;;;;;;;5.00;3.30;;;21.20;99.90;;;;;;5103253;28;20496;-87
2023/10/12 14:53:27;;;;;;;5.73;3.57;;;21.20;99.90;;;;;;5083297;28;20170;-87
2023/10/12 14:55:54;;;;;;;4.57;3.83;;;21.20;99.90;;;;;;5088338;28;20281;-87
2023/10/12 14:58:21;;;;;;;4.93;3.57;;;21.20;99.90;;;;;;5094670;28;20194;-88